createdAt,value
2019-04-29T00:01:00.568Z,25.43
2019-04-29T00:03:31.364Z,26.13
2019-04-29T00:06:02.155Z,24.33
2019-04-29T00:08:32.914Z,24.87
2019-04-29T00:11:03.532Z,24.37
2019-04-29T00:13:34.310Z,24.50
2019-04-29T00:16:13.416Z,24.70
2019-04-29T00:18:56.598Z,24.40
2019-04-29T00:21:27.452Z,24.40
2019-04-29T00:24:04.149Z,24.37
2019-04-29T00:26:30.573Z,24.47
2019-04-29T00:29:01.386Z,24.27
2019-04-29T00:31:32.350Z,24.90
2019-04-29T00:34:03.121Z,24.90
2019-04-29T00:36:39.697Z,25.07
2019-04-29T00:39:24.639Z,23.80
2019-04-29T00:42:20.472Z,24.87
2019-04-29T00:44:51.116Z,24.40
2019-04-29T00:47:21.620Z,26.37
2019-04-29T00:49:52.531Z,26.07
2019-04-29T00:52:23.127Z,26.80
2019-04-29T00:55:00.353Z,28.13
2019-04-29T00:57:30.820Z,27.93
2019-04-29T01:00:01.247Z,29.37
2019-04-29T01:02:33.492Z,28.40
2019-04-29T01:05:04.835Z,28.50
2019-04-29T01:07:35.823Z,28.43
2019-04-29T01:10:07.357Z,28.67
2019-04-29T01:12:38.088Z,28.33
2019-04-29T01:15:10.018Z,28.63
2019-04-29T01:17:40.521Z,28.43
2019-04-29T01:20:11.415Z,29.20
2019-04-29T01:22:42.967Z,28.63
2019-04-29T01:25:14.423Z,29.40
2019-04-29T01:27:51.368Z,28.37
2019-04-29T01:31:15.653Z,28.27
2019-04-29T01:33:48.081Z,28.43
2019-04-29T01:36:36.446Z,27.17
2019-04-29T01:39:09.611Z,28.20
2019-04-29T01:42:05.266Z,27.23
2019-04-29T01:44:37.368Z,27.13
2019-04-29T01:47:07.902Z,26.97
2019-04-29T01:49:38.963Z,26.93
2019-04-29T01:52:09.792Z,27.13
2019-04-29T01:54:40.746Z,26.83
2019-04-29T01:57:11.276Z,27.67
2019-04-29T01:59:41.934Z,27.33
2019-04-29T02:02:12.547Z,26.97
2019-04-29T02:04:43.492Z,25.87
2019-04-29T02:07:14.320Z,27.60
2019-04-29T02:10:00.412Z,25.90
2019-04-29T02:12:31.142Z,26.30
2019-04-29T02:15:02.078Z,27.50
2019-04-29T02:17:32.604Z,26.07
2019-04-29T02:20:03.340Z,26.33
2019-04-29T02:22:39.172Z,26.43
2019-04-29T02:25:23.627Z,28.10
2019-04-29T02:27:54.782Z,26.80
2019-04-29T02:30:43.920Z,26.37
2019-04-29T02:33:14.382Z,27.77
2019-04-29T02:35:45.394Z,28.27
2019-04-29T02:38:37.987Z,29.20
2019-04-29T02:41:19.157Z,28.77
2019-04-29T02:43:51.361Z,28.87
2019-04-29T02:46:22.200Z,27.70
2019-04-29T02:48:52.767Z,28.87
2019-04-29T02:51:41.074Z,27.63
2019-04-29T02:54:11.492Z,29.67
2019-04-29T02:56:44.808Z,28.53
2019-04-29T02:59:16.850Z,29.33
2019-04-29T03:01:58.785Z,29.23
2019-04-29T03:04:31.844Z,29.40
2019-04-29T03:07:02.984Z,28.93
2019-04-29T03:09:40.508Z,28.67
2019-04-29T03:12:11.900Z,29.17
2019-04-29T03:14:42.463Z,30.03
2019-04-29T03:17:13.130Z,29.13
2019-04-29T03:20:02.931Z,29.87
2019-04-29T03:22:34.945Z,29.23
2019-04-29T03:25:06.236Z,29.70
2019-04-29T03:27:36.819Z,30.67
2019-04-29T03:30:08.000Z,29.53
2019-04-29T03:32:38.964Z,29.40
2019-04-29T03:35:09.890Z,30.53
2019-04-29T03:37:40.706Z,30.67
2019-04-29T03:40:11.631Z,30.90
2019-04-29T03:42:42.119Z,29.77
2019-04-29T03:45:13.962Z,31.57
2019-04-29T03:47:44.418Z,30.23
2019-04-29T03:50:15.191Z,30.40
2019-04-29T03:52:46.674Z,29.87
2019-04-29T03:55:17.233Z,30.90
2019-04-29T03:57:48.109Z,29.43
2019-04-29T04:00:19.018Z,30.67
2019-04-29T04:03:11.525Z,31.90
2019-04-29T04:05:49.832Z,29.90
2019-04-29T04:08:38.212Z,31.37
2019-04-29T04:11:08.760Z,30.20
2019-04-29T04:13:39.229Z,29.83
2019-04-29T04:16:12.875Z,29.07
2019-04-29T04:18:43.412Z,29.57
2019-04-29T04:21:14.092Z,30.77
2019-04-29T04:23:44.681Z,31.47
2019-04-29T04:26:15.213Z,30.30
2019-04-29T04:28:45.705Z,31.20
2019-04-29T04:31:16.297Z,30.17
2019-04-29T04:33:47.009Z,30.70
2019-04-29T04:36:17.469Z,32.27
2019-04-29T04:38:48.224Z,31.97
2019-04-29T04:41:18.864Z,32.13
2019-04-29T04:43:50.407Z,32.33
2019-04-29T04:46:21.059Z,31.97
2019-04-29T04:48:51.576Z,31.00
2019-04-29T04:51:23.311Z,29.17
2019-04-29T04:53:53.755Z,30.57
2019-04-29T04:56:24.700Z,29.03
2019-04-29T04:58:55.617Z,30.63
2019-04-29T05:01:26.138Z,30.00
2019-04-29T05:03:56.666Z,29.93
2019-04-29T05:06:27.353Z,29.60
2019-04-29T05:08:57.845Z,30.43
2019-04-29T05:11:28.307Z,29.43
2019-04-29T05:13:58.977Z,29.40
2019-04-29T05:16:29.435Z,29.40
2019-04-29T05:19:00.124Z,29.37
2019-04-29T05:21:30.720Z,28.33
2019-04-29T05:24:01.173Z,30.03
2019-04-29T05:26:31.844Z,28.10
2019-04-29T05:29:02.303Z,28.20
2019-04-29T05:31:32.835Z,28.27
2019-04-29T05:34:03.709Z,27.63
2019-04-29T05:36:51.298Z,27.37
2019-04-29T05:39:24.931Z,27.87
2019-04-29T05:41:55.759Z,28.10
2019-04-29T05:44:38.075Z,26.90
2019-04-29T05:47:13.392Z,26.97
2019-04-29T05:49:49.196Z,27.00
2019-04-29T05:52:29.742Z,27.30
2019-04-29T05:55:01.427Z,25.83
2019-04-29T05:57:31.287Z,26.37
2019-04-29T06:00:01.919Z,25.17
2019-04-29T06:02:35.143Z,25.40
2019-04-29T06:05:05.667Z,25.43
2019-04-29T06:07:36.249Z,25.13
2019-04-29T06:10:06.899Z,25.90
2019-04-29T06:12:37.454Z,26.03
2019-04-29T06:15:08.714Z,25.53
2019-04-29T06:17:40.119Z,24.77
2019-04-29T06:20:17.162Z,23.80
2019-04-29T06:22:45.414Z,24.57
2019-04-29T06:25:15.975Z,24.00
2019-04-29T06:27:46.857Z,24.30
2019-04-29T06:30:17.352Z,23.17
2019-04-29T06:32:47.789Z,24.60
2019-04-29T06:35:18.330Z,22.70
2019-04-29T06:37:48.959Z,25.47
2019-04-29T06:40:19.514Z,24.83
2019-04-29T06:42:53.496Z,24.77
2019-04-29T06:45:22.108Z,24.73
2019-04-29T06:47:52.964Z,25.57
2019-04-29T06:50:23.545Z,25.10
2019-04-29T06:52:54.162Z,25.20
2019-04-29T06:55:25.183Z,24.57
2019-04-29T06:57:55.752Z,24.83
2019-04-29T07:00:26.311Z,24.67
2019-04-29T07:02:56.795Z,24.77
2019-04-29T07:05:27.555Z,24.70
2019-04-29T07:07:57.974Z,25.63
2019-04-29T07:10:28.485Z,24.33
2019-04-29T07:12:59.320Z,25.70
2019-04-29T07:15:29.886Z,24.57
2019-04-29T07:18:00.435Z,25.23
2019-04-29T07:20:32.539Z,25.07
2019-04-29T07:23:03.145Z,24.60
2019-04-29T07:25:33.618Z,25.87
2019-04-29T07:28:04.089Z,23.57
2019-04-29T07:30:39.193Z,24.13
2019-04-29T07:33:06.703Z,24.43
2019-04-29T07:35:38.313Z,23.80
2019-04-29T07:38:09.907Z,25.10
2019-04-29T07:40:43.499Z,24.07
2019-04-29T07:43:12.602Z,24.63
2019-04-29T07:45:52.632Z,24.27
2019-04-29T07:48:24.393Z,23.47
2019-04-29T07:50:55.406Z,24.40
2019-04-29T07:53:35.059Z,22.30
2019-04-29T07:56:01.778Z,22.80
2019-04-29T07:58:30.008Z,22.17
2019-04-29T08:01:01.494Z,22.43
2019-04-29T08:03:32.283Z,22.60
2019-04-29T08:06:03.089Z,21.67
2019-04-29T08:08:34.853Z,21.93
2019-04-29T08:11:05.296Z,21.67
2019-04-29T08:13:36.876Z,21.50
2019-04-29T08:16:07.333Z,21.53
2019-04-29T08:18:37.913Z,22.17
2019-04-29T08:21:10.246Z,21.57
2019-04-29T08:23:42.072Z,21.83
2019-04-29T08:26:13.077Z,21.47
2019-04-29T08:28:43.568Z,20.63
2019-04-29T08:31:16.555Z,22.17
2019-04-29T08:33:46.808Z,21.67
2019-04-29T08:36:18.398Z,21.67
2019-04-29T08:38:48.791Z,21.33
2019-04-29T08:41:21.019Z,20.20
2019-04-29T08:44:16.501Z,20.20
2019-04-29T08:46:54.355Z,19.17
2019-04-29T08:49:24.849Z,19.63
2019-04-29T08:51:55.245Z,19.80
2019-04-29T08:54:26.981Z,20.20
2019-04-29T08:57:02.781Z,18.13
2019-04-29T08:59:29.435Z,19.37
2019-04-29T09:02:05.296Z,19.03
2019-04-29T09:04:35.186Z,18.67
2019-04-29T09:07:12.767Z,18.40
2019-04-29T09:09:39.135Z,18.73
2019-04-29T09:12:10.157Z,19.00
2019-04-29T09:14:40.699Z,19.47
2019-04-29T09:17:20.212Z,18.80
2019-04-29T09:19:43.520Z,18.30
2019-04-29T09:22:16.681Z,20.37
2019-04-29T09:25:05.130Z,18.70
2019-04-29T09:27:40.761Z,18.80
2019-04-29T09:30:10.652Z,18.57
2019-04-29T09:32:41.553Z,18.87
2019-04-29T09:35:12.215Z,18.50
2019-04-29T09:37:42.914Z,19.70
2019-04-29T09:40:15.962Z,18.73
2019-04-29T09:43:21.493Z,18.00
2019-04-29T09:46:00.330Z,19.33
2019-04-29T09:48:31.054Z,19.60
2019-04-29T09:51:01.859Z,19.40
2019-04-29T09:53:32.487Z,18.90
2019-04-29T09:56:03.098Z,18.83
2019-04-29T09:58:33.578Z,19.47
2019-04-29T10:01:18.775Z,19.07
2019-04-29T10:04:00.246Z,19.40
2019-04-29T10:06:33.511Z,18.23
2019-04-29T10:09:06.213Z,19.80
2019-04-29T10:11:37.154Z,19.73
2019-04-29T10:14:07.804Z,20.47
2019-04-29T10:17:15.401Z,20.67
2019-04-29T10:19:58.977Z,19.53
2019-04-29T10:22:29.971Z,19.77
2019-04-29T10:25:00.437Z,21.07
2019-04-29T10:27:31.073Z,19.03
2019-04-29T10:30:01.713Z,19.17
2019-04-29T10:32:32.317Z,18.93
2019-04-29T10:35:03.634Z,19.17
2019-04-29T10:37:35.131Z,17.77
2019-04-29T10:40:25.839Z,17.43
2019-04-29T10:43:21.348Z,17.63
2019-04-29T10:46:10.867Z,17.17
2019-04-29T10:48:50.484Z,17.40
2019-04-29T10:51:23.232Z,18.00
2019-04-29T10:53:53.752Z,18.30
2019-04-29T10:56:25.490Z,18.03
2019-04-29T10:58:55.974Z,17.67
2019-04-29T11:02:09.329Z,18.20
2019-04-29T11:04:38.101Z,18.80
2019-04-29T11:07:30.150Z,17.77
2019-04-29T11:10:08.054Z,17.30
2019-04-29T11:12:39.724Z,17.20
2019-04-29T11:15:14.055Z,16.33
2019-04-29T11:17:44.609Z,18.03
2019-04-29T11:20:17.165Z,17.07
2019-04-29T11:22:54.178Z,16.47
2019-04-29T11:25:41.981Z,16.03
2019-04-29T11:28:16.210Z,16.10
2019-04-29T11:30:44.483Z,15.37
2019-04-29T11:33:23.247Z,15.53
2019-04-29T11:36:05.501Z,15.57
2019-04-29T11:38:38.321Z,16.60
2019-04-29T11:41:12.328Z,16.70
2019-04-29T11:43:42.059Z,15.10
2019-04-29T11:46:14.453Z,16.13
2019-04-29T11:48:45.129Z,17.00
2019-04-29T11:51:34.065Z,16.23
2019-04-29T11:54:08.168Z,18.77
2019-04-29T11:56:39.600Z,17.10
2019-04-29T11:59:28.040Z,16.57
2019-04-29T12:02:16.212Z,15.57
2019-04-29T12:05:04.187Z,15.07
2019-04-29T12:07:34.125Z,14.60
2019-04-29T12:10:06.478Z,15.77
2019-04-29T12:12:37.781Z,15.27
2019-04-29T12:15:17.451Z,15.10
2019-04-29T12:17:55.093Z,12.93
2019-04-29T12:20:47.407Z,12.03
2019-04-29T12:23:17.919Z,13.07
2019-04-29T12:25:48.656Z,12.63
2019-04-29T12:28:20.120Z,13.30
2019-04-29T12:30:52.149Z,12.87
2019-04-29T12:33:32.421Z,13.00
2019-04-29T12:36:08.222Z,13.23
2019-04-29T12:38:56.166Z,12.70
2019-04-29T12:41:49.189Z,12.40
2019-04-29T12:44:34.926Z,11.65
2019-04-29T12:47:26.249Z,11.55
2019-04-29T12:49:49.533Z,11.85
2019-04-29T12:52:20.474Z,12.13
2019-04-29T12:54:51.002Z,12.00
2019-04-29T12:57:23.515Z,12.98
2019-04-29T12:59:54.623Z,12.47
2019-04-29T13:02:50.448Z,12.25
2019-04-29T13:05:35.811Z,11.15
2019-04-29T13:08:12.570Z,11.33
2019-04-29T13:10:50.863Z,11.18
2019-04-29T13:13:22.026Z,10.82
2019-04-29T13:16:08.464Z,11.12
2019-04-29T13:18:53.906Z,11.63
2019-04-29T13:21:25.653Z,10.95
2019-04-29T13:24:12.525Z,11.18
2019-04-29T13:26:29.064Z,10.63
2019-04-29T13:29:01.628Z,10.72
2019-04-29T13:31:38.424Z,10.68
2019-04-29T13:34:23.010Z,10.38
2019-04-29T13:36:39.300Z,11.05
2019-04-29T13:39:10.061Z,10.68
2019-04-29T13:41:56.083Z,10.90
2019-04-29T13:44:12.940Z,10.68
2019-04-29T13:47:14.745Z,10.30
2019-04-29T13:49:49.411Z,10.40
2019-04-29T13:52:20.546Z,10.25
2019-04-29T13:54:51.254Z,9.93
2019-04-29T13:57:21.931Z,8.80
2019-04-29T14:00:14.299Z,8.88
2019-04-29T14:03:07.297Z,9.55
2019-04-29T14:05:36.638Z,9.68
2019-04-29T14:08:08.242Z,9.90
2019-04-29T14:10:38.656Z,9.83
2019-04-29T14:13:15.199Z,10.05
2019-04-29T14:15:42.260Z,11.08
2019-04-29T14:18:13.722Z,10.65
2019-04-29T14:20:47.197Z,9.45
2019-04-29T14:23:16.510Z,9.93
2019-04-29T14:25:46.969Z,11.12
2019-04-29T14:28:17.587Z,10.48
2019-04-29T14:30:49.218Z,11.73
2019-04-29T14:33:25.796Z,11.73
2019-04-29T14:36:05.360Z,12.10
2019-04-29T14:38:40.016Z,11.83
2019-04-29T14:41:08.079Z,11.93
2019-04-29T14:44:06.768Z,11.63
2019-04-29T14:46:47.858Z,10.47
2019-04-29T14:49:21.836Z,10.80
2019-04-29T14:51:52.810Z,11.10
2019-04-29T14:54:23.299Z,10.93
2019-04-29T14:56:54.215Z,11.77
2019-04-29T14:59:25.046Z,10.83
2019-04-29T15:02:03.219Z,9.73
2019-04-29T15:04:37.075Z,10.03
2019-04-29T15:07:07.593Z,10.30
2019-04-29T15:09:55.850Z,9.53
2019-04-29T15:13:18.422Z,9.73
2019-04-29T15:16:03.376Z,10.83
2019-04-29T15:18:47.690Z,10.20
2019-04-29T15:21:45.261Z,10.83
2019-04-29T15:24:17.492Z,11.13
2019-04-29T15:26:48.485Z,10.67
2019-04-29T15:29:19.053Z,10.13
2019-04-29T15:31:50.007Z,10.47
2019-04-29T15:34:20.493Z,9.23
2019-04-29T15:36:51.147Z,7.97
2019-04-29T15:39:25.243Z,8.60
2019-04-29T15:41:55.820Z,8.90
2019-04-29T15:44:26.794Z,9.30
2019-04-29T15:46:57.545Z,8.87
2019-04-29T15:49:28.432Z,9.63
2019-04-29T15:51:58.989Z,9.33
2019-04-29T15:54:29.560Z,9.27
2019-04-29T15:57:03.792Z,9.77
2019-04-29T15:59:47.749Z,9.60
2019-04-29T16:02:06.689Z,9.33
2019-04-29T16:04:47.122Z,9.57
2019-04-29T16:07:46.685Z,10.70
2019-04-29T16:10:44.010Z,10.60
2019-04-29T16:13:14.808Z,10.90
2019-04-29T16:15:45.779Z,10.77
2019-04-29T16:18:16.499Z,9.97
2019-04-29T16:20:53.294Z,9.17
2019-04-29T16:23:19.303Z,8.63
2019-04-29T16:25:52.174Z,9.10
2019-04-29T16:28:24.246Z,10.00
2019-04-29T16:30:54.495Z,9.87
2019-04-29T16:33:25.017Z,10.00
2019-04-29T16:35:57.553Z,10.73
2019-04-29T16:38:27.785Z,10.80
2019-04-29T16:41:07.020Z,11.57
2019-04-29T16:43:47.482Z,10.90
2019-04-29T16:46:23.531Z,11.13
2019-04-29T16:48:53.959Z,11.17
2019-04-29T16:51:24.613Z,10.70
2019-04-29T16:53:55.925Z,11.13
2019-04-29T16:56:27.513Z,11.27
2019-04-29T16:58:57.950Z,10.93
2019-04-29T17:01:28.906Z,10.50
2019-04-29T17:04:05.166Z,11.43
2019-04-29T17:06:35.843Z,10.43
2019-04-29T17:09:22.831Z,10.60
2019-04-29T17:11:50.457Z,11.23
2019-04-29T17:14:21.479Z,10.87
2019-04-29T17:16:52.018Z,10.40
2019-04-29T17:19:22.549Z,11.20
2019-04-29T17:21:53.127Z,11.27
2019-04-29T17:24:24.037Z,11.03
2019-04-29T17:27:09.340Z,11.30
2019-04-29T17:30:17.230Z,11.27
2019-04-29T17:33:07.013Z,11.60
2019-04-29T17:35:42.958Z,11.47
2019-04-29T17:38:11.233Z,11.67
2019-04-29T17:40:50.871Z,12.00
2019-04-29T17:43:33.022Z,13.07
2019-04-29T17:46:11.716Z,12.03
2019-04-29T17:48:58.417Z,12.50
2019-04-29T17:51:29.453Z,12.53
2019-04-29T17:54:03.187Z,12.60
2019-04-29T17:57:25.433Z,13.30
2019-04-29T18:00:06.980Z,12.43
2019-04-29T18:03:02.405Z,12.97
2019-04-29T18:05:58.471Z,13.13
2019-04-29T18:08:56.883Z,12.97
2019-04-29T18:11:28.197Z,13.50
2019-04-29T18:13:58.987Z,13.43
2019-04-29T18:16:39.584Z,14.13
2019-04-29T18:19:30.946Z,14.13
2019-04-29T18:22:34.913Z,13.67
2019-04-29T18:25:31.371Z,13.13
2019-04-29T18:28:02.406Z,13.93
2019-04-29T18:30:38.345Z,14.33
2019-04-29T18:33:05.456Z,14.63
2019-04-29T18:35:36.184Z,14.20
2019-04-29T18:38:07.555Z,15.30
2019-04-29T18:40:42.189Z,15.13
2019-04-29T18:43:11.402Z,16.23
2019-04-29T18:45:53.897Z,15.87
2019-04-29T18:48:18.861Z,16.20
2019-04-29T18:50:47.834Z,14.73
2019-04-29T18:53:18.696Z,16.03
2019-04-29T18:55:49.313Z,15.83
2019-04-29T18:58:20.287Z,16.43
2019-04-29T19:00:53.781Z,15.77
2019-04-29T19:03:36.328Z,16.43
2019-04-29T19:06:10.314Z,15.57
2019-04-29T19:08:39.762Z,17.03
2019-04-29T19:11:10.611Z,17.90
2019-04-29T19:13:43.534Z,17.23
2019-04-29T19:16:21.712Z,17.83
2019-04-29T19:18:47.504Z,18.27
2019-04-29T19:21:18.439Z,19.37
2019-04-29T19:23:52.572Z,20.43
2019-04-29T19:26:22.418Z,20.33
2019-04-29T19:28:54.141Z,19.97
2019-04-29T19:31:25.255Z,21.50
2019-04-29T19:33:57.383Z,21.67
2019-04-29T19:36:28.194Z,20.27
2019-04-29T19:38:58.851Z,20.07
2019-04-29T19:41:29.629Z,20.00
2019-04-29T19:44:00.471Z,19.50
2019-04-29T19:46:36.827Z,21.17
2019-04-29T19:49:09.630Z,20.83
2019-04-29T19:51:39.311Z,22.47
2019-04-29T19:54:09.931Z,23.00
2019-04-29T19:56:40.746Z,23.30
2019-04-29T19:59:13.629Z,22.17
2019-04-29T20:01:48.874Z,23.13
2019-04-29T20:04:39.854Z,22.43
2019-04-29T20:07:11.180Z,23.43
2019-04-29T20:09:43.429Z,22.77
2019-04-29T20:12:17.362Z,22.37
2019-04-29T20:14:47.437Z,22.03
2019-04-29T20:20:41.257Z,23.53
2019-04-29T20:23:11.919Z,27.17
2019-04-29T20:25:42.793Z,28.23
2019-04-29T20:28:18.442Z,25.73
2019-04-29T20:30:55.593Z,25.10
2019-04-29T20:33:24.860Z,24.03
2019-04-29T20:36:01.628Z,24.73
2019-04-29T20:38:29.784Z,23.23
2019-04-29T20:41:01.129Z,23.47
2019-04-29T20:43:33.332Z,22.63
2019-04-29T20:46:04.651Z,23.93
2019-04-29T20:48:37.131Z,23.97
2019-04-29T20:51:13.134Z,23.97
2019-04-29T20:53:46.084Z,24.53
2019-04-29T20:56:24.686Z,24.50
2019-04-29T20:58:49.454Z,25.33
2019-04-29T21:01:26.247Z,25.27
2019-04-29T21:03:56.941Z,26.70
2019-04-29T21:06:27.671Z,27.07
2019-04-29T21:08:58.560Z,26.13
2019-04-29T21:11:38.227Z,26.87
2019-04-29T21:14:33.991Z,26.43
2019-04-29T21:17:07.947Z,27.03
2019-04-29T21:19:35.363Z,26.97
2019-04-29T21:22:06.026Z,25.60
2019-04-29T21:24:36.471Z,26.57
2019-04-29T21:27:06.960Z,26.73
2019-04-29T21:29:37.396Z,27.33
2019-04-29T21:32:07.880Z,28.00
2019-04-29T21:34:57.272Z,28.27
2019-04-29T21:37:32.532Z,28.50
2019-04-29T21:40:24.308Z,27.27
2019-04-29T21:43:13.567Z,28.33
2019-04-29T21:45:44.300Z,28.97
2019-04-29T21:48:12.048Z,30.00
2019-04-29T21:50:42.739Z,29.27
2019-04-29T21:53:15.055Z,30.93
2019-04-29T21:55:45.882Z,30.53
2019-04-29T21:58:16.727Z,30.70
2019-04-29T22:00:47.512Z,32.17
2019-04-29T22:03:23.722Z,30.80
2019-04-29T22:05:53.532Z,33.57
2019-04-29T22:08:27.568Z,35.33
2019-04-29T22:10:58.363Z,36.20
2019-04-29T22:13:30.681Z,38.23
2019-04-29T22:16:01.140Z,39.40
2019-04-29T22:18:32.139Z,39.87
2019-04-29T22:21:06.599Z,40.57
2019-04-29T22:23:35.354Z,41.03
2019-04-29T22:26:06.234Z,39.87
2019-04-29T22:28:36.979Z,43.37
2019-04-29T22:31:07.866Z,43.30
2019-04-29T22:33:38.695Z,43.20
2019-04-29T22:36:10.237Z,42.90
2019-04-29T22:38:43.604Z,41.77
2019-04-29T22:41:20.250Z,41.80
2019-04-29T22:43:54.631Z,41.83
2019-04-29T22:46:26.545Z,41.73
2019-04-29T22:48:57.074Z,41.20
2019-04-29T22:51:27.830Z,39.50
2019-04-29T22:53:58.281Z,37.87
2019-04-29T22:56:28.985Z,37.53
2019-04-29T22:58:59.441Z,37.73
2019-04-29T23:01:30.017Z,37.30
2019-04-29T23:04:00.903Z,36.80
2019-04-29T23:06:31.453Z,37.70
2019-04-29T23:09:02.457Z,38.77
2019-04-29T23:11:34.823Z,38.10
2019-04-29T23:14:09.929Z,39.60
2019-04-29T23:16:38.613Z,40.03
2019-04-29T23:19:09.821Z,40.37
2019-04-29T23:22:06.712Z,40.33
2019-04-29T23:25:11.456Z,37.80
2019-04-29T23:27:41.949Z,34.17
2019-04-29T23:30:18.045Z,34.80
2019-04-29T23:32:47.640Z,34.40
2019-04-29T23:35:18.294Z,34.63
2019-04-29T23:37:48.782Z,35.60
2019-04-29T23:40:19.549Z,35.27
2019-04-29T23:42:49.964Z,34.83
2019-04-29T23:45:21.277Z,33.70
2019-04-29T23:47:52.515Z,34.57
2019-04-29T23:50:23.288Z,34.33
2019-04-29T23:52:55.565Z,34.90
2019-04-29T23:55:29.261Z,33.63
2019-04-29T23:58:32.578Z,32.37
